Terminal Aerodrome Forecast
Issued by NWS

Home | Current Version | Previous Version | Text Only | Print | Product List | Glossary On
Versions: 1 2 3 4 5 6 7 8 9 10 11 12 13 14 15 16 17 18 19 20 21 22 23 24 25 26 27 28 29 30 31 32 33
000
FTUS45 KGJT 220604 AAA
TAFRIL
TAF AMD
KRIL 220604Z 2206/2306 20005KT P6SM VCTS BKN050CB BKN070
      TEMPO 2206/2207 VRB15G30KT -TSRA
     FM220900 VRB03KT P6SM BKN100
     FM222000 27008KT P6SM VCSH SCT060 BKN090
     FM230200 14005KT P6SM FEW100 SCT250=

USA.gov is the U.S. government's official web portal to all federal, state and local government web resources and services.